Time;durP1;ratioP1;P1;durP2;ratioP2;P2;SDS_P1;SDS_P2;PMS_P1;PMS_P2;Temp;Humidity;BMP_temperature;BMP_pressure;BME280_temperature;BME280_humidity;BME280_pressure;Samples;Min_cycle;Max_cycle;Signal;HPM_P1;HPM_P2
2023/05/14 00:00:21;;;;;;;7.67;6.13;;;;;;;9.80;100.00;100237.91;5080300;28;20188;-70
2023/05/14 00:02:46;;;;;;;6.93;6.10;;;;;;;9.79;100.00;100241.38;5099443;28;20195;-69
2023/05/14 00:05:12;;;;;;;6.67;5.93;;;;;;;9.70;100.00;100252.94;5090908;28;20179;-69
2023/05/14 00:07:37;;;;;;;7.83;6.27;;;;;;;9.77;100.00;100240.63;5069824;28;20223;-68
2023/05/14 00:10:02;;;;;;;9.93;6.60;;;;;;;9.85;100.00;100236.75;5068384;28;20184;-67
2023/05/14 00:12:28;;;;;;;7.37;6.67;;;;;;;9.74;100.00;100233.06;5072324;28;20542;-68
2023/05/14 00:14:54;;;;;;;6.77;6.13;;;;;;;9.79;100.00;100231.94;5085411;28;20176;-69
2023/05/14 00:17:19;;;;;;;7.50;6.80;;;;;;;9.75;100.00;100234.72;5066862;28;20179;-68
2023/05/14 00:19:44;;;;;;;7.87;6.70;;;;;;;9.72;100.00;100234.88;5077286;28;20510;-68
2023/05/14 00:22:10;;;;;;;6.70;6.00;;;;;;;9.71;100.00;100234.03;5076053;28;20259;-68
2023/05/14 00:24:35;;;;;;;7.33;6.57;;;;;;;9.65;100.00;100245.44;5089969;28;20255;-69
2023/05/14 00:27:02;;;;;;;7.30;6.57;;;;;;;9.50;100.00;100247.03;5090475;28;20283;-69
2023/05/14 00:29:27;;;;;;;8.30;6.70;;;;;;;9.57;100.00;100242.41;5070160;28;20181;-69
2023/05/14 00:31:52;;;;;;;7.90;6.77;;;;;;;9.65;100.00;100236.91;5089735;28;20211;-68
2023/05/14 00:34:18;;;;;;;8.33;6.97;;;;;;;9.62;100.00;100230.16;5096415;28;20523;-68
2023/05/14 00:36:43;;;;;;;7.17;6.57;;;;;;;9.64;100.00;100228.38;5072962;28;20180;-68
2023/05/14 00:39:08;;;;;;;8.03;7.33;;;;;;;9.62;100.00;100231.91;5092464;28;20187;-69
2023/05/14 00:41:33;;;;;;;7.60;6.83;;;;;;;9.61;100.00;100225.97;5060108;28;20256;-69
2023/05/14 00:43:59;;;;;;;7.00;6.40;;;;;;;9.43;100.00;100227.66;5078912;28;20643;-68
2023/05/14 00:46:25;;;;;;;7.07;6.47;;;;;;;9.57;100.00;100226.19;5081943;28;20179;-68
2023/05/14 00:48:50;;;;;;;7.07;6.53;;;;;;;9.56;100.00;100225.34;5094796;28;20283;-69
2023/05/14 00:51:17;;;;;;;6.87;6.17;;;;;;;9.53;100.00;100230.63;5075465;28;20226;-68
2023/05/14 00:53:44;;;;;;;8.43;6.90;;;;;;;9.42;100.00;100217.47;5068544;28;20750;-67
2023/05/14 00:56:09;;;;;;;7.37;6.53;;;;;;;9.41;100.00;100215.81;5093783;28;20188;-68
2023/05/14 00:58:35;;;;;;;8.87;6.77;;;;;;;9.42;100.00;100220.03;5086125;28;20271;-68
2023/05/14 01:01:00;;;;;;;6.83;6.27;;;;;;;9.37;100.00;100213.38;5083094;28;20581;-68
2023/05/14 01:03:25;;;;;;;7.73;7.03;;;;;;;9.35;100.00;100217.78;5073179;28;20654;-68
2023/05/14 01:05:59;;;;;;;10.67;6.83;;;;;;;9.28;100.00;100218.97;5088969;28;20236;-67
2023/05/14 01:09:00;;;;;;;8.63;6.77;;;;;;;9.19;100.00;100221.94;5094270;28;20207;-67
2023/05/14 01:11:32;;;;;;;7.20;6.40;;;;;;;9.15;100.00;100221.28;5086535;28;20222;-67
2023/05/14 01:14:13;;;;;;;7.67;6.77;;;;;;;9.16;100.00;100219.53;5098355;28;20210;-68
2023/05/14 01:16:39;;;;;;;8.23;7.53;;;;;;;9.20;100.00;100216.75;5074236;28;20172;-68
2023/05/14 01:19:09;;;;;;;8.53;7.43;;;;;;;9.12;100.00;100216.28;5081456;28;20632;-68
2023/05/14 01:21:41;;;;;;;8.90;8.00;;;;;;;9.08;100.00;100208.78;5086758;28;20231;-69
2023/05/14 01:24:07;;;;;;;7.57;6.77;;;;;;;9.06;100.00;100208.88;5097287;28;20343;-69
2023/05/14 01:26:34;;;;;;;8.07;7.27;;;;;;;9.07;100.00;100210.53;5093552;28;20184;-68
2023/05/14 01:29:12;;;;;;;9.07;8.17;;;;;;;8.96;100.00;100205.06;5094016;28;20246;-68
2023/05/14 01:31:41;;;;;;;7.67;6.90;;;;;;;8.95;100.00;100211.91;5087617;28;20219;-69
2023/05/14 01:34:08;;;;;;;8.40;7.67;;;;;;;8.96;100.00;100215.34;5096265;28;20172;-68
2023/05/14 01:36:34;;;;;;;8.17;7.47;;;;;;;8.86;100.00;100209.78;5093427;28;20226;-69
2023/05/14 01:39:02;;;;;;;8.00;7.17;;;;;;;8.91;100.00;100204.47;5089550;28;20238;-69
2023/05/14 01:41:29;;;;;;;7.90;7.20;;;;;;;8.84;100.00;100209.03;5068003;28;20230;-68
2023/05/14 01:43:56;;;;;;;8.00;7.30;;;;;;;8.83;100.00;100215.03;5084554;28;20227;-68
2023/05/14 01:46:23;;;;;;;9.03;7.83;;;;;;;8.83;100.00;100210.75;5092171;28;20300;-67
2023/05/14 01:48:48;;;;;;;8.47;7.77;;;;;;;8.78;100.00;100202.44;5093081;28;20208;-70
2023/05/14 01:51:14;;;;;;;8.53;7.73;;;;;;;8.72;100.00;100211.25;5076192;28;20308;-69
2023/05/14 01:53:39;;;;;;;8.27;7.47;;;;;;;8.72;100.00;100208.69;5084993;28;20184;-69
2023/05/14 01:56:05;;;;;;;8.23;7.53;;;;;;;8.69;100.00;100211.38;5068701;28;20176;-70
2023/05/14 01:58:30;;;;;;;8.47;7.67;;;;;;;8.70;100.00;100210.47;5077950;28;20695;-69
2023/05/14 02:00:55;;;;;;;9.03;8.23;;;;;;;8.68;100.00;100207.16;5081994;28;20252;-70
2023/05/14 02:03:21;;;;;;;9.30;8.40;;;;;;;8.62;100.00;100202.31;5083947;28;20575;-70
2023/05/14 02:05:46;;;;;;;9.20;8.37;;;;;;;8.65;100.00;100198.78;5071151;28;20177;-70
2023/05/14 02:08:11;;;;;;;9.30;8.40;;;;;;;8.62;100.00;100202.31;5091366;28;20275;-69
2023/05/14 02:10:36;;;;;;;10.07;9.10;;;;;;;8.58;100.00;100202.50;5082236;28;20228;-70
2023/05/14 02:13:02;;;;;;;9.67;8.67;;;;;;;8.58;100.00;100199.94;5100989;28;20223;-70
2023/05/14 02:15:28;;;;;;;8.57;7.87;;;;;;;8.52;100.00;100196.75;5091137;28;20178;-69
2023/05/14 02:17:53;;;;;;;8.83;8.10;;;;;;;8.52;100.00;100203.59;5093078;28;20235;-69
2023/05/14 02:20:18;;;;;;;9.53;8.63;;;;;;;8.47;100.00;100205.53;5072324;28;20184;-70
2023/05/14 02:22:47;;;;;;;8.90;8.10;;;;;;;8.39;100.00;100209.22;5100537;28;20310;-70
2023/05/14 02:25:12;;;;;;;8.73;7.93;;;;;;;8.53;100.00;100200.13;5092345;28;20247;-70
2023/05/14 02:27:37;;;;;;;9.20;7.53;;;;;;;8.62;100.00;100198.88;5092828;28;20275;-70
2023/05/14 02:30:05;;;;;;;8.67;7.93;;;;;;;8.67;100.00;100194.38;5063985;28;20177;-68
2023/05/14 02:32:30;;;;;;;7.33;6.73;;;;;;;8.73;100.00;100194.09;5069165;28;20208;-69
2023/05/14 02:34:55;;;;;;;9.03;7.27;;;;;;;8.81;100.00;100194.59;5087495;28;20539;-68
2023/05/14 02:37:20;;;;;;;9.03;8.07;;;;;;;8.78;100.00;100196.47;5092488;28;20180;-68
2023/05/14 02:39:46;;;;;;;7.60;7.00;;;;;;;8.65;100.00;100194.47;5073985;28;20183;-69
2023/05/14 02:42:11;;;;;;;7.97;7.27;;;;;;;8.82;100.00;100191.13;5077317;28;20226;-69
2023/05/14 02:44:36;;;;;;;8.00;7.30;;;;;;;8.90;100.00;100187.41;5085615;28;20594;-69
2023/05/14 02:47:02;;;;;;;7.07;6.57;;;;;;;8.77;100.00;100187.97;5091857;28;20180;-68
2023/05/14 02:49:27;;;;;;;8.37;6.83;;;;;;;8.85;100.00;100187.59;5092193;28;20184;-68
2023/05/14 02:51:53;;;;;;;7.43;6.83;;;;;;;8.86;100.00;100184.13;5076227;28;20255;-69
2023/05/14 02:54:18;;;;;;;7.43;6.73;;;;;;;8.86;100.00;100182.38;5071865;28;20180;-69
2023/05/14 02:56:43;;;;;;;7.27;6.57;;;;;;;8.84;100.00;100179.09;5071689;28;20601;-69
2023/05/14 02:59:09;;;;;;;7.37;6.50;;;;;;;8.64;100.00;100186.84;5081648;28;20184;-69
2023/05/14 03:01:34;;;;;;;7.57;6.87;;;;;;;8.71;100.00;100183.09;5040194;28;20610;-69
2023/05/14 03:03:59;;;;;;;7.63;6.93;;;;;;;8.71;100.00;100180.53;5079948;28;20340;-70
2023/05/14 03:06:25;;;;;;;9.57;6.87;;;;;;;8.68;100.00;100183.22;5070205;28;20206;-69
2023/05/14 03:08:50;;;;;;;8.57;7.87;;;;;;;8.64;100.00;100179.16;5070354;28;20189;-70
2023/05/14 03:11:15;;;;;;;8.00;7.20;;;;;;;8.57;100.00;100178.59;5073816;28;20235;-69
2023/05/14 03:13:40;;;;;;;8.30;7.60;;;;;;;8.53;100.00;100182.19;5098020;28;20195;-69
2023/05/14 03:16:06;;;;;;;8.00;7.30;;;;;;;8.51;100.00;100177.13;5080790;28;20698;-70
2023/05/14 03:18:33;;;;;;;8.43;7.60;;;;;;;8.40;100.00;100174.19;5098577;28;20176;-68
2023/05/14 03:20:58;;;;;;;9.73;7.40;;;;;;;8.42;100.00;100174.94;5063029;28;20237;-69
2023/05/14 03:23:24;;;;;;;10.73;7.00;;;;;;;8.39;100.00;100178.47;5082463;28;20749;-70
2023/05/14 03:25:49;;;;;;;8.70;7.43;;;;;;;8.39;100.00;100182.78;5091156;28;20196;-69
2023/05/14 03:28:15;;;;;;;8.13;7.43;;;;;;;8.37;100.00;100179.44;5091227;28;20196;-69
2023/05/14 03:30:40;;;;;;;11.17;7.57;;;;;;;8.36;100.00;100178.63;5041890;28;20260;-69
2023/05/14 03:33:05;;;;;;;8.90;8.10;;;;;;;8.37;100.00;100182.00;5099142;28;20216;-69
2023/05/14 03:35:31;;;;;;;9.50;8.53;;;;;;;8.37;100.00;100179.44;5069889;28;20263;-69
2023/05/14 03:37:58;;;;;;;8.53;7.57;;;;;;;8.24;100.00;100181.72;5085609;28;20274;-68
2023/05/14 03:40:23;;;;;;;8.80;7.57;;;;;;;8.20;100.00;100185.31;5079866;28;20274;-68
2023/05/14 03:42:48;;;;;;;7.60;6.90;;;;;;;8.31;100.00;100183.13;5099224;28;20267;-68
2023/05/14 03:45:14;;;;;;;8.80;8.00;;;;;;;8.43;100.00;100184.28;5091018;28;20195;-69
2023/05/14 03:47:39;;;;;;;8.53;7.73;;;;;;;8.48;100.00;100172.13;5091453;28;20212;-69
2023/05/14 03:50:05;;;;;;;9.10;8.07;;;;;;;8.65;100.00;100173.13;5059735;28;20181;-67
2023/05/14 03:52:30;;;;;;;8.37;7.60;;;;;;;8.70;100.00;100177.13;5083549;28;20192;-69
2023/05/14 03:54:56;;;;;;;11.13;7.13;;;;;;;8.74;100.00;100171.88;5086819;28;20185;-69
2023/05/14 03:57:21;;;;;;;7.57;6.93;;;;;;;8.84;100.00;100173.09;5077121;28;20259;-69
2023/05/14 03:59:46;;;;;;;7.03;6.33;;;;;;;8.95;100.00;100173.44;5090972;28;20247;-70
2023/05/14 04:02:12;;;;;;;7.10;6.43;;;;;;;9.00;100.00;100171.47;5061607;28;20239;-70
2023/05/14 04:04:37;;;;;;;7.87;7.07;;;;;;;9.07;100.00;100171.19;5084914;28;20172;-68
2023/05/14 04:07:02;;;;;;;7.10;6.50;;;;;;;9.08;100.00;100163.44;5094338;28;20184;-70
2023/05/14 04:09:27;;;;;;;9.00;6.33;;;;;;;9.09;100.00;100159.97;5095570;28;20207;-70
2023/05/14 04:11:53;;;;;;;7.23;6.53;;;;;;;9.07;100.00;100161.78;5090954;28;20307;-69
2023/05/14 04:14:18;;;;;;;7.50;6.77;;;;;;;9.10;100.00;100166.75;5096533;28;20172;-70
2023/05/14 04:16:43;;;;;;;6.97;6.37;;;;;;;9.13;100.00;100168.34;5095074;28;20580;-68
2023/05/14 04:19:08;;;;;;;8.37;7.10;;;;;;;9.10;100.00;100173.63;5089799;28;20185;-68
2023/05/14 04:21:34;;;;;;;7.90;6.60;;;;;;;9.16;100.00;100173.34;5083481;28;20276;-68
2023/05/14 04:23:59;;;;;;;7.27;6.30;;;;;;;9.28;100.00;100175.31;5098778;28;20667;-68
2023/05/14 04:26:24;;;;;;;6.87;6.17;;;;;;;9.29;100.00;100178.72;5073124;28;20180;-68
2023/05/14 04:28:50;;;;;;;6.77;6.17;;;;;;;9.42;100.00;100184.91;5090209;28;20333;-69
2023/05/14 04:31:15;;;;;;;6.27;5.67;;;;;;;9.43;100.00;100178.88;5085458;28;20663;-68
2023/05/14 04:33:41;;;;;;;8.27;6.80;;;;;;;9.58;100.00;100179.06;5101033;28;20269;-68
2023/05/14 04:36:06;;;;;;;7.37;6.67;;;;;;;9.83;100.00;100186.38;5093978;28;20184;-68
2023/05/14 04:38:31;;;;;;;6.53;5.83;;;;;;;9.90;100.00;100182.59;5094876;28;20188;-69
2023/05/14 04:40:57;;;;;;;6.73;6.13;;;;;;;10.08;100.00;100185.13;5065896;28;20228;-68
2023/05/14 04:43:22;;;;;;;6.50;5.90;;;;;;;10.06;100.00;100181.78;5085874;28;20168;-69
2023/05/14 04:45:48;;;;;;;6.73;6.00;;;;;;;10.06;100.00;100182.63;5093912;28;20262;-69
2023/05/14 04:48:13;;;;;;;6.67;5.93;;;;;;;10.24;100.00;100180.84;5094716;28;20196;-68
2023/05/14 04:50:38;;;;;;;7.43;5.93;;;;;;;10.39;100.00;100184.38;5081768;28;20301;-68
2023/05/14 04:53:03;;;;;;;7.47;5.87;;;;;;;10.54;100.00;100187.88;5083046;28;20961;-69
2023/05/14 04:55:29;;;;;;;6.97;6.20;;;;;;;10.55;100.00;100183.59;5093023;28;20192;-69
2023/05/14 04:57:54;;;;;;;6.90;6.30;;;;;;;10.67;100.00;100182.94;5082175;28;20192;-68
2023/05/14 05:00:20;;;;;;;6.60;5.80;;;;;;;10.79;100.00;100186.56;5074673;28;20180;-69
2023/05/14 05:02:46;;;;;;;9.83;6.37;;;;;;;10.89;100.00;100186.91;5081615;28;20173;-69
2023/05/14 05:05:11;;;;;;;6.50;5.90;;;;;;;11.05;100.00;100182.59;5073760;28;20188;-68
2023/05/14 05:07:36;;;;;;;6.33;5.60;;;;;;;11.21;100.00;100190.31;5083077;28;20208;-71
2023/05/14 05:10:02;;;;;;;6.40;5.80;;;;;;;11.39;100.00;100179.88;5094287;28;20172;-70
2023/05/14 05:12:29;;;;;;;7.00;6.40;;;;;;;11.64;100.00;100179.31;5089060;28;20228;-72
2023/05/14 05:14:56;;;;;;;6.17;5.57;;;;;;;11.95;100.00;100174.94;5094003;28;20176;-71
2023/05/14 05:17:21;;;;;;;7.40;6.47;;;;;;;12.16;100.00;100177.19;5093841;28;20199;-71
2023/05/14 05:19:46;;;;;;;6.30;5.70;;;;;;;12.37;100.00;100175.06;5084771;28;20177;-71
2023/05/14 05:22:12;;;;;;;5.43;4.90;;;;;;;12.46;100.00;100184.00;5086592;28;20651;-72
2023/05/14 05:24:37;;;;;;;5.87;5.27;;;;;;;12.68;100.00;100179.16;5087267;28;20218;-71
2023/05/14 05:27:04;;;;;;;5.93;4.73;;;;;;;12.93;100.00;100176.81;5093253;28;20210;-71
2023/05/14 05:29:29;;;;;;;5.77;5.27;;;;;;;13.13;100.00;100183.28;5072140;28;20172;-71
2023/05/14 05:31:54;;;;;;;5.43;4.90;;;;;;;13.30;100.00;100175.28;5094561;28;20293;-72
2023/05/14 05:34:20;;;;;;;5.60;5.10;;;;;;;13.18;100.00;100179.47;5093836;28;20651;-72
2023/05/14 05:36:45;;;;;;;5.67;4.90;;;;;;;13.35;100.00;100180.16;5093103;28;20194;-70
2023/05/14 05:39:10;;;;;;;6.57;5.30;;;;;;;13.63;100.00;100168.03;5093665;28;20176;-70
2023/05/14 05:41:35;;;;;;;4.90;4.50;;;;;;;13.66;100.00;100171.22;5090678;28;20265;-69
2023/05/14 05:44:01;;;;;;;5.27;4.87;;;;;;;13.62;100.00;100172.38;5098570;28;20215;-69
2023/05/14 05:46:26;;;;;;;7.70;5.17;;;;;;;13.70;100.00;100175.25;5076431;28;20185;-70
2023/05/14 05:48:52;;;;;;;5.23;4.73;;;;;;;13.80;100.00;100180.66;5075530;28;20226;-69
2023/05/14 05:51:17;;;;;;;6.53;4.57;;;;;;;14.19;100.00;100176.31;5090759;28;20361;-69
2023/05/14 05:53:42;;;;;;;5.30;4.80;;;;;;;14.55;100.00;100173.03;5100514;28;20179;-69
2023/05/14 05:56:08;;;;;;;5.13;4.73;;;;;;;14.85;100.00;100170.88;5086490;28;20219;-70
2023/05/14 05:58:33;;;;;;;4.90;4.50;;;;;;;14.84;100.00;100179.59;5086339;28;20570;-69
2023/05/14 06:00:58;;;;;;;7.87;5.30;;;;;;;14.56;100.00;100172.91;5087970;28;20226;-69
2023/05/14 06:03:24;;;;;;;5.43;4.90;;;;;;;14.50;100.00;100181.13;5103056;28;20184;-69
2023/05/14 06:05:49;;;;;;;7.00;5.00;;;;;;;14.53;100.00;100184.31;5092659;28;20203;-69
2023/05/14 06:08:15;;;;;;;5.80;5.30;;;;;;;14.31;100.00;100169.47;5079420;28;20196;-69
2023/05/14 06:10:40;;;;;;;8.13;5.23;;;;;;;14.35;100.00;100177.81;5064168;28;20224;-69
2023/05/14 06:13:05;;;;;;;6.00;4.73;;;;;;;14.59;100.00;100184.84;5100311;28;20216;-69
2023/05/14 06:15:31;;;;;;;6.53;4.97;;;;;;;14.74;100.00;100178.59;5093062;28;20167;-69
2023/05/14 06:17:56;;;;;;;4.93;4.43;;;;;;;14.83;100.00;100180.53;5092633;28;20249;-69
2023/05/14 06:20:21;;;;;;;5.57;4.20;;;;;;;14.61;100.00;100178.63;5081184;28;20669;-70
2023/05/14 06:22:47;;;;;;;4.10;3.80;;;;;;;14.25;100.00;100175.06;5106076;28;20228;-69
2023/05/14 06:25:12;;;;;;;4.07;3.53;;;;;;;14.32;100.00;100181.44;5092735;28;20195;-71
2023/05/14 06:27:41;;;;;;;4.33;3.97;;;;;;;14.37;100.00;100173.38;5093053;28;20196;-70
2023/05/14 06:30:07;;;;;;;6.87;4.80;;;;;;;14.77;100.00;100187.91;5081727;28;20215;-70
2023/05/14 06:32:32;;;;;;;3.80;3.50;;;;;;;15.11;100.00;100183.72;5101144;28;20517;-70
2023/05/14 06:34:58;;;;;;;5.23;3.90;;;;;;;15.28;100.00;100181.66;5071248;28;20181;-70
2023/05/14 06:37:23;;;;;;;8.97;4.00;;;;;;;15.06;100.00;100178.06;5092393;28;20217;-70
2023/05/14 06:39:49;;;;;;;3.73;3.40;;;;;;;15.26;100.00;100184.38;5071193;28;20628;-70
2023/05/14 06:42:17;;;;;;;4.30;3.73;;;;;;;15.51;100.00;100187.75;5071789;28;20644;-70
2023/05/14 06:44:44;;;;;;;4.20;3.57;;;;;;;15.51;100.00;100190.34;5068128;28;20187;-70
2023/05/14 06:47:09;;;;;;;4.30;3.53;;;;;;;15.62;100.00;100182.59;5086939;28;20218;-70
2023/05/14 06:49:34;;;;;;;3.73;3.43;;;;;;;15.55;100.00;100186.59;5074533;28;20702;-70
2023/05/14 06:52:00;;;;;;;3.70;3.40;;;;;;;15.45;100.00;100185.63;5076473;28;20612;-69
2023/05/14 06:54:25;;;;;;;3.70;3.20;;;;;;;15.28;100.00;100187.69;5092990;28;20184;-70
2023/05/14 06:56:51;;;;;;;5.10;3.47;;;;;;;15.46;100.00;100180.31;5079537;28;20172;-70
2023/05/14 06:59:16;;;;;;;3.30;3.00;;;;;;;15.70;100.00;100176.84;5079736;28;20257;-70
2023/05/14 07:01:41;;;;;;;3.93;2.93;;;;;;;15.68;100.00;100180.50;5056222;28;20218;-70
2023/05/14 07:04:06;;;;;;;3.83;3.53;;;;;;;15.79;100.00;100177.94;5067111;28;20269;-70
2023/05/14 07:06:32;;;;;;;6.43;3.20;;;;;;;15.84;100.00;100172.41;5067797;28;20197;-69
2023/05/14 07:08:58;;;;;;;3.37;3.07;;;;;;;15.49;100.00;100181.84;5078764;28;20208;-69
2023/05/14 07:11:23;;;;;;;3.57;3.27;;;;;;;15.22;100.00;100185.56;5083504;28;20214;-70
2023/05/14 07:13:48;;;;;;;4.57;3.57;;;;;;;15.02;100.00;100179.22;5097669;28;20207;-70
2023/05/14 07:16:14;;;;;;;3.43;3.13;;;;;;;15.56;100.00;100177.88;5082044;28;20224;-70
2023/05/14 07:18:39;;;;;;;3.23;2.97;;;;;;;15.83;100.00;100171.59;5097724;28;20195;-70
2023/05/14 07:21:05;;;;;;;4.10;3.53;;;;;;;15.79;100.00;100170.97;5078284;28;20630;-69
2023/05/14 07:23:31;;;;;;;4.33;3.10;;;;;;;16.29;100.00;100170.66;5099497;28;20252;-70
2023/05/14 07:25:57;;;;;;;3.90;3.00;;;;;;;17.17;100.00;100160.34;5077331;28;20172;-69
2023/05/14 07:28:22;;;;;;;3.17;2.97;;;;;;;19.28;89.28;100156.28;5092027;28;20195;-71
2023/05/14 07:30:47;;;;;;;2.90;2.60;;;;;;;20.65;73.65;100154.97;5042843;28;20221;-70
2023/05/14 07:33:12;;;;;;;3.33;2.90;;;;;;;20.56;69.27;100158.47;5080877;28;20173;-70
2023/05/14 07:35:38;;;;;;;3.07;2.83;;;;;;;21.74;64.91;100155.72;5087946;28;20232;-70
2023/05/14 07:38:04;;;;;;;4.40;2.63;;;;;;;23.67;49.75;100159.19;5073368;28;20642;-69
2023/05/14 07:40:30;;;;;;;3.13;2.60;;;;;;;24.75;45.32;100158.75;5073703;28;20787;-70
2023/05/14 07:42:55;;;;;;;6.15;2.47;;;;;;;23.60;47.87;100163.47;5099259;28;20188;-70
2023/05/14 07:45:20;;;;;;;2.40;2.25;;;;;;;23.61;46.57;100165.09;5089956;28;20224;-70
2023/05/14 07:47:45;;;;;;;2.95;2.22;;;;;;;22.84;46.39;100171.50;5077736;28;20192;-70
2023/05/14 07:50:11;;;;;;;2.53;2.33;;;;;;;22.67;52.79;100161.97;5078834;28;20616;-70
2023/05/14 07:52:36;;;;;;;2.58;2.38;;;;;;;22.67;52.75;100161.97;5067664;28;20204;-70
2023/05/14 07:55:02;;;;;;;3.08;2.83;;;;;;;23.09;50.62;100168.91;5086241;28;20627;-68
2023/05/14 07:57:28;;;;;;;5.03;2.47;;;;;;;21.80;57.13;100160.34;5071539;28;20206;-70
2023/05/14 07:59:53;;;;;;;3.42;2.70;;;;;;;21.10;66.48;100161.97;5086956;28;20631;-71
2023/05/14 08:02:18;;;;;;;3.37;3.07;;;;;;;21.41;58.73;100161.53;5088309;28;20294;-70
2023/05/14 08:04:44;;;;;;;2.90;2.70;;;;;;;22.87;52.63;100163.34;5091525;28;20180;-69
2023/05/14 08:07:10;;;;;;;3.25;2.53;;;;;;;22.43;49.71;100154.91;5082390;28;20203;-70
2023/05/14 08:09:35;;;;;;;3.35;2.38;;;;;;;21.99;52.04;100154.06;5091265;28;20194;-69
2023/05/14 08:12:00;;;;;;;2.85;2.53;;;;;;;22.62;49.08;100164.28;5087430;28;20292;-69
2023/05/14 08:14:26;;;;;;;4.30;2.80;;;;;;;22.30;47.88;100157.94;5092518;28;20188;-70
2023/05/14 08:16:51;;;;;;;3.40;2.85;;;;;;;22.55;47.95;100150.97;5091073;28;20180;-69
2023/05/14 08:19:17;;;;;;;3.67;2.33;;;;;;;23.16;45.99;100159.44;5087956;28;20180;-70
2023/05/14 08:21:43;;;;;;;2.55;2.35;;;;;;;24.99;42.13;100152.47;5085961;28;20234;-70
2023/05/14 08:24:08;;;;;;;2.80;2.55;;;;;;;25.86;39.19;100148.53;5093758;28;20187;-69
2023/05/14 08:26:33;;;;;;;4.10;2.17;;;;;;;26.76;37.44;100148.34;5091244;28;20176;-70
2023/05/14 08:28:59;;;;;;;2.47;2.10;;;;;;;27.03;36.63;100148.59;5091359;28;20196;-70
2023/05/14 08:31:24;;;;;;;2.50;2.30;;;;;;;25.21;37.82;100142.09;5078500;28;20216;-70
2023/05/14 08:33:49;;;;;;;2.10;2.00;;;;;;;24.48;39.53;100139.81;5091565;28;20204;-69
2023/05/14 08:36:15;;;;;;;3.13;2.35;;;;;;;24.68;40.05;100139.41;5090871;28;20187;-68
2023/05/14 08:38:41;;;;;;;3.47;3.17;;;;;;;22.60;46.04;100140.00;5091204;28;20184;-70
2023/05/14 08:41:08;;;;;;;2.72;2.47;;;;;;;22.81;45.20;100123.81;5056380;28;20227;-70
2023/05/14 08:44:11;;;;;;;2.60;2.40;;;;;;;22.35;46.59;100124.19;5090994;28;20208;-70
2023/05/14 08:46:38;;;;;;;2.28;2.08;;;;;;;23.23;44.46;100114.97;5028023;28;20277;-70
2023/05/14 08:49:13;;;;;;;3.03;2.72;;;;;;;23.49;45.27;100111.31;5012406;28;20213;-70
2023/05/14 08:51:39;;;;;;;2.97;2.40;;;;;;;22.94;44.84;100121.53;5018880;28;20217;-70
2023/05/14 08:54:05;;;;;;;2.92;2.72;;;;;;;22.86;44.55;100116.25;5032370;28;20248;-69
2023/05/14 08:56:32;;;;;;;2.40;2.20;;;;;;;23.56;42.21;100104.41;5031926;28;20208;-69
2023/05/14 08:58:57;;;;;;;2.80;2.30;;;;;;;23.60;43.97;100104.91;5032387;28;20222;-70
2023/05/14 09:01:23;;;;;;;2.80;2.05;;;;;;;24.59;40.55;100102.59;5005705;28;20708;-69
2023/05/14 09:03:49;;;;;;;3.72;2.20;;;;;;;25.24;39.42;100097.81;5031914;28;20198;-69
2023/05/14 09:06:15;;;;;;;2.45;2.25;;;;;;;24.87;40.90;100090.75;5031578;28;20265;-70
2023/05/14 09:08:40;;;;;;;2.38;2.20;;;;;;;23.36;43.64;100098.72;5032007;28;20632;-69
2023/05/14 09:11:05;;;;;;;2.70;2.50;;;;;;;22.86;44.85;100088.25;5022096;28;20711;-69
2023/05/14 09:13:31;;;;;;;2.38;2.17;;;;;;;25.29;40.66;100081.47;5031907;28;20229;-69
2023/05/14 09:15:56;;;;;;;5.57;2.85;;;;;;;25.05;38.65;100085.97;5014099;28;20194;-69
2023/05/14 09:18:21;;;;;;;3.78;2.38;;;;;;;25.87;38.38;100084.28;5031892;28;20657;-70
2023/05/14 09:20:47;;;;;;;4.28;1.85;;;;;;;24.98;38.30;100095.56;5021485;28;20229;-69
2023/05/14 09:23:12;;;;;;;2.10;2.00;;;;;;;23.37;40.12;100093.31;5075111;28;20285;-68
2023/05/14 09:25:37;;;;;;;3.33;1.95;;;;;;;24.97;37.36;100076.34;5092334;28;20219;-69
2023/05/14 09:28:08;;;;;;;2.95;2.13;;;;;;;25.40;37.39;100086.34;5110995;28;20192;-69
2023/05/14 09:30:36;;;;;;;4.45;2.10;;;;;;;23.97;38.98;100088.53;5102333;28;20235;-69
2023/05/14 09:33:02;;;;;;;2.17;1.90;;;;;;;24.12;39.32;100078.09;5106151;28;20191;-68
2023/05/14 09:35:28;;;;;;;2.60;1.90;;;;;;;24.80;39.32;100073.03;5113809;28;20486;-69
2023/05/14 09:37:54;;;;;;;2.33;2.13;;;;;;;22.85;41.55;100073.50;5113862;28;20247;-69
2023/05/14 09:40:21;;;;;;;1.80;1.70;;;;;;;22.72;43.69;100068.75;5085344;28;20175;-70
2023/05/14 09:42:48;;;;;;;2.25;2.05;;;;;;;25.10;39.19;100067.84;5105391;28;20631;-69
2023/05/14 09:45:14;;;;;;;2.22;1.80;;;;;;;23.81;40.95;100075.44;5112087;28;20252;-70
2023/05/14 09:47:39;;;;;;;2.35;2.15;;;;;;;21.80;45.83;100079.16;5091824;28;20192;-70
2023/05/14 09:50:06;;;;;;;2.10;1.98;;;;;;;22.04;50.50;100080.22;5104812;27;20630;-69
2023/05/14 09:52:32;;;;;;;2.30;2.10;;;;;;;20.57;54.55;100076.50;5080513;28;20226;-69
2023/05/14 09:54:58;;;;;;;3.27;2.27;;;;;;;20.34;57.86;100073.50;5109725;28;20247;-69
2023/05/14 09:57:25;;;;;;;2.30;2.17;;;;;;;19.88;66.58;100076.09;5100129;28;20262;-70
2023/05/14 09:59:51;;;;;;;2.80;2.30;;;;;;;20.19;61.81;100071.38;5113795;28;20183;-70
2023/05/14 10:02:21;;;;;;;2.90;2.20;;;;;;;19.61;67.55;100077.69;5066919;28;20743;-70
2023/05/14 10:04:49;;;;;;;3.10;2.80;;;;;;;19.64;67.14;100074.81;5098893;28;20225;-70
2023/05/14 10:07:17;;;;;;;2.80;2.60;;;;;;;20.29;60.38;100069.56;5113022;28;20228;-70
2023/05/14 10:09:45;;;;;;;2.80;2.43;;;;;;;20.53;60.18;100076.00;5113815;28;20186;-70
2023/05/14 10:12:11;;;;;;;2.93;2.63;;;;;;;21.45;52.42;100075.72;5100568;28;20223;-71
2023/05/14 10:14:46;;;;;;;2.20;2.03;;;;;;;20.79;50.83;100077.88;5106897;28;20236;-71
2023/05/14 10:17:17;;;;;;;2.50;2.30;;;;;;;20.85;51.66;100063.38;5109731;28;20641;-71
2023/05/14 10:19:49;;;;;;;2.53;2.33;;;;;;;21.11;52.93;100066.84;5103802;28;20631;-70
2023/05/14 10:22:21;;;;;;;2.70;2.37;;;;;;;22.32;46.12;100072.94;5095135;28;20732;-69
2023/05/14 10:24:49;;;;;;;2.33;1.87;;;;;;;23.98;41.41;100073.59;5092987;28;20329;-70
2023/05/14 10:27:16;;;;;;;2.70;2.50;;;;;;;23.84;40.62;100067.19;5092423;28;20580;-70
2023/05/14 10:29:49;;;;;;;5.03;2.15;;;;;;;24.60;42.07;100064.00;5093051;28;20180;-70
2023/05/14 10:32:15;;;;;;;2.72;1.95;;;;;;;21.69;48.11;100066.38;5089915;28;20302;-70
2023/05/14 10:34:44;;;;;;;2.42;2.17;;;;;;;21.20;51.29;100062.47;5092800;28;20267;-70
2023/05/14 10:37:20;;;;;;;2.00;1.90;;;;;;;21.32;51.15;100064.84;5092319;28;20222;-70
2023/05/14 10:39:56;;;;;;;3.20;1.80;;;;;;;20.60;51.79;100057.91;5088430;28;20643;-70
2023/05/14 10:42:23;;;;;;;2.33;2.13;;;;;;;20.27;55.24;100068.06;5070665;28;20632;-70
2023/05/14 10:45:00;;;;;;;2.20;2.00;;;;;;;19.49;57.44;100070.03;5067987;28;20174;-71
2023/05/14 10:47:30;;;;;;;1.97;1.87;;;;;;;19.54;61.75;100055.78;5083727;28;20236;-71
2023/05/14 10:49:58;;;;;;;3.50;2.33;;;;;;;19.49;62.60;100062.22;5088333;28;20237;-68
2023/05/14 10:52:24;;;;;;;2.53;2.33;;;;;;;19.55;65.30;100054.78;5072370;28;20296;-70
2023/05/14 10:54:58;;;;;;;2.80;2.30;;;;;;;19.46;70.31;100061.69;5087929;28;20658;-70
2023/05/14 10:57:26;;;;;;;2.90;2.70;;;;;;;18.91;77.71;100059.75;5091995;28;20186;-69
2023/05/14 10:59:53;;;;;;;4.20;2.50;;;;;;;18.97;80.23;100061.81;5092240;28;20196;-68
2023/05/14 11:02:30;;;;;;;3.53;2.47;;;;;;;19.14;80.65;100057.66;5079892;28;20713;-69
2023/05/14 11:05:21;;;;;;;2.63;2.43;;;;;;;19.26;78.64;100047.88;5092091;28;20577;-70
2023/05/14 11:07:48;;;;;;;2.83;2.47;;;;;;;19.14;76.70;100044.63;5081340;28;20207;-70
2023/05/14 11:10:16;;;;;;;2.63;2.30;;;;;;;18.74;78.24;100050.81;5080754;28;20259;-69
2023/05/14 11:12:46;;;;;;;2.40;2.20;;;;;;;18.89;76.48;100052.06;5100603;28;20208;-69
2023/05/14 11:15:14;;;;;;;3.27;2.80;;;;;;;19.04;76.06;100039.44;5080021;28;20642;-70
2023/05/14 11:17:41;;;;;;;2.50;2.30;;;;;;;19.05;75.53;100038.44;5083431;28;20565;-70
2023/05/14 11:20:08;;;;;;;3.13;2.83;;;;;;;18.84;75.53;100043.78;5071203;28;20270;-69